Terminal Aerodrome Forecast
Issued by NWS

Home | Current Version | Previous Version | Text Only | Print | Product List | Glossary On
Versions: 1 2 3 4 5 6 7 8 9 10 11 12 13 14 15 16 17 18
985
FTUS43 KMQT 231134 CCA
TAFIWD
TAF COR
KIWD 231134Z 2312/2412 00000KT P6SM VCSH OVC035
      TEMPO 2312/2313 5SM BR FEW002
     FM231300 00000KT P6SM -SHRA BKN040
     FM231800 36006KT P6SM BKN040
     FM232300 03007KT P6SM BKN030
     FM240300 03003KT P6SM BKN025
     FM240600 00000KT 4SM BR BKN008
     FM241100 00000KT P6SM BKN008=

USA.gov is the U.S. government's official web portal to all federal, state and local government web resources and services.